Main page
METAR-TAF:

METAR-TAF

Airports :

Tarvisio, Italy

latitude: 46-30N, longitude: 013-35E, elevation: 777 m

Current weather observation

The report was made 7 hours and 8 minutes ago, at 17:55 UTC
Wind 2 kt from the East/Northeast
Temperature 15°C
Humidity 77%
Pressure 1018 hPa
Visibility 10 km or more
Few clouds at a height of 2500 ft
Scattered clouds at a height of 3000 ft

METAR: LIVO 201755Z 06002KT 9999 FEW025 SCT030 15/11 Q1018 RMK BKN VIS MIN 9999

Time: 03:03 (01:03 UTC)


TAF: missing

Weather observations and forecasts of more than 4000 airports (METAR and TAF reports).

The available stations are represented by yellow and red dots on the map.

Hover mouse over dot to see the name of the station.

Then click to see weather observations and forecasts.

To change the map : click on the green buttons with a black cross to zoom in, on the green button with a dash to zoom out, or on the green arrows for adjacent maps.


METAR-TAF: